Terminal Aerodrome Forecast
Issued by NWS Jackson, KY

Home | Current Version | Previous Version | Text Only | Print | Product List | Glossary On
Versions: 1 2 3 4 5 6 7 8 9 10 11 12 13 14 15 16 17 18
661
FTUS43 KJKL 180957 AAA
TAFJKL
TAF AMD
KJKL 180957Z 1810/1906 20009G18KT P6SM OVC060
     FM181500 21013G25KT P6SM VCSH BKN045
     FM182300 22015G28KT 3SM SHRA VCTS OVC025CB
     FM190400 28012G25KT 4SM -RA BR BKN020=

USA.gov is the U.S. government's official web portal to all federal, state and local government web resources and services.